createdAt,value
2024-01-10T00:02:38.726Z,58.60
2024-01-10T00:07:42.833Z,58.38
2024-01-10T00:12:46.458Z,57.95
2024-01-10T00:17:49.283Z,58.08
2024-01-10T00:22:52.392Z,58.79
2024-01-10T00:27:55.383Z,58.28
2024-01-10T00:32:58.368Z,58.35
2024-01-10T00:38:02.417Z,58.34
2024-01-10T00:43:05.628Z,58.45
2024-01-10T00:48:10.251Z,58.76
2024-01-10T00:53:13.166Z,58.56
2024-01-10T00:58:16.874Z,58.03
2024-01-10T01:03:19.513Z,59.12
2024-01-10T01:08:22.623Z,58.00
2024-01-10T01:13:25.526Z,58.79
2024-01-10T01:18:28.527Z,58.78
2024-01-10T01:23:38.936Z,57.61
2024-01-10T01:28:46.061Z,58.22
2024-01-10T01:33:49.077Z,58.00
2024-01-10T01:38:52.943Z,58.63
2024-01-10T01:43:55.793Z,58.26
2024-01-10T01:48:59.743Z,58.27
2024-01-10T01:54:02.617Z,57.68
2024-01-10T01:59:09.822Z,57.33
2024-01-10T02:04:13.276Z,57.34
2024-01-10T02:09:17.788Z,57.47
2024-01-10T02:14:20.876Z,57.83
2024-01-10T02:19:25.369Z,57.75
2024-01-10T02:24:28.246Z,57.09
2024-01-10T02:29:33.057Z,57.70
2024-01-10T02:34:35.849Z,57.21
2024-01-10T02:39:39.693Z,57.45
2024-01-10T02:44:42.434Z,56.70
2024-01-10T02:49:45.626Z,57.44
2024-01-10T02:54:48.408Z,56.92
2024-01-10T02:59:51.489Z,57.08
2024-01-10T03:04:54.339Z,57.38
2024-01-10T03:09:57.258Z,56.88
2024-01-10T03:15:00.324Z,56.22
2024-01-10T03:20:04.998Z,57.80
2024-01-10T03:25:07.972Z,57.75
2024-01-10T03:30:11.883Z,57.80
2024-01-10T03:35:14.954Z,57.45
2024-01-10T03:40:17.809Z,58.00
2024-01-10T03:45:24.401Z,58.08
2024-01-10T03:50:28.672Z,58.19
2024-01-10T03:55:31.368Z,57.65
2024-01-10T04:00:35.145Z,58.03
2024-01-10T04:05:38.109Z,58.54
2024-01-10T04:10:42.246Z,57.84
2024-01-10T04:15:45.099Z,57.68
2024-01-10T04:20:51.058Z,58.51
2024-01-10T04:25:53.794Z,58.21
2024-01-10T04:30:57.466Z,58.92
2024-01-10T04:36:00.380Z,59.53
2024-01-10T04:41:03.536Z,59.49
2024-01-10T04:46:06.495Z,59.20
2024-01-10T04:51:09.896Z,58.76
2024-01-10T04:56:12.851Z,58.91
2024-01-10T05:01:17.084Z,59.16
2024-01-10T05:06:19.995Z,58.87
2024-01-10T05:11:23.344Z,58.19
2024-01-10T05:16:26.304Z,58.99
2024-01-10T05:21:29.433Z,59.21
2024-01-10T05:26:32.230Z,58.68
2024-01-10T05:31:36.500Z,58.23
2024-01-10T05:36:39.326Z,59.06
2024-01-10T05:41:46.745Z,58.49
2024-01-10T05:46:49.774Z,58.58
2024-01-10T05:51:53.983Z,58.99
2024-01-10T05:56:56.856Z,58.07
2024-01-10T06:02:00.355Z,58.10
2024-01-10T06:07:05.353Z,58.19
2024-01-10T06:12:09.481Z,58.23
2024-01-10T06:17:12.368Z,57.34
2024-01-10T06:22:16.068Z,57.64
2024-01-10T06:27:19.876Z,58.23
2024-01-10T06:32:25.173Z,58.48
2024-01-10T06:37:29.166Z,58.74
2024-01-10T06:42:32.737Z,59.70
2024-01-10T06:47:35.726Z,60.37
2024-01-10T06:52:39.504Z,60.13
2024-01-10T06:57:42.343Z,60.92
2024-01-10T07:02:45.861Z,61.43
2024-01-10T07:07:48.798Z,61.82
2024-01-10T07:12:53.274Z,62.77
2024-01-10T07:17:56.096Z,65.51
2024-01-10T07:23:00.640Z,65.21
2024-01-10T07:28:03.465Z,64.59
2024-01-10T07:33:08.600Z,64.28
2024-01-10T07:38:11.603Z,63.90
2024-01-10T07:43:14.852Z,63.58
2024-01-10T07:48:17.804Z,63.02
2024-01-10T07:53:21.681Z,62.01
2024-01-10T07:58:24.575Z,61.98
2024-01-10T08:03:27.743Z,61.82
2024-01-10T08:08:30.656Z,61.83
2024-01-10T08:13:34.000Z,61.48
2024-01-10T08:18:36.996Z,60.98
2024-01-10T08:23:40.032Z,60.28
2024-01-10T08:28:44.225Z,60.48
2024-01-10T08:33:48.312Z,60.54
2024-01-10T08:38:52.112Z,60.81
2024-01-10T08:43:56.322Z,60.27
2024-01-10T08:48:59.333Z,59.85
2024-01-10T08:54:03.776Z,59.90
2024-01-10T08:59:07.222Z,59.69
2024-01-10T09:04:11.259Z,59.11
2024-01-10T09:09:14.663Z,58.45
2024-01-10T09:14:18.198Z,58.17
2024-01-10T09:19:21.282Z,57.60
2024-01-10T09:24:29.333Z,57.62
2024-01-10T09:29:33.149Z,57.60
2024-01-10T09:34:36.171Z,57.42
2024-01-10T09:39:39.077Z,55.85
2024-01-10T09:44:43.613Z,56.80
2024-01-10T09:49:47.904Z,56.84
2024-01-10T09:54:56.628Z,57.60
2024-01-10T09:59:59.718Z,57.27
2024-01-10T10:05:05.891Z,57.14
2024-01-10T10:10:10.300Z,56.70
2024-01-10T10:15:18.383Z,57.24
2024-01-10T10:20:26.586Z,57.36
2024-01-10T10:25:37.411Z,57.35
2024-01-10T10:30:40.249Z,57.65
2024-01-10T10:35:46.472Z,57.22
2024-01-10T10:40:52.267Z,57.54
2024-01-10T10:45:58.540Z,57.48
2024-01-10T10:51:10.415Z,57.84
2024-01-10T10:56:14.887Z,58.08
2024-01-10T11:01:18.621Z,58.36
2024-01-10T11:06:22.846Z,58.27
2024-01-10T11:11:38.900Z,58.30
2024-01-10T11:17:19.870Z,58.55
2024-01-10T11:23:07.763Z,58.72
2024-01-10T11:28:15.194Z,59.59
2024-01-10T11:33:32.827Z,59.77
2024-01-10T11:38:39.851Z,60.26
2024-01-10T11:43:42.674Z,60.60
2024-01-10T11:48:45.669Z,60.63
2024-01-10T11:53:48.652Z,60.75
2024-01-10T11:59:12.616Z,61.06
2024-01-10T12:04:23.838Z,61.52
2024-01-10T12:09:33.932Z,61.57
2024-01-10T12:14:38.216Z,60.98
2024-01-10T12:19:41.653Z,61.53
2024-01-10T12:24:47.038Z,61.72
2024-01-10T12:29:54.342Z,61.69
2024-01-10T12:35:05.715Z,62.07
2024-01-10T12:40:11.471Z,62.19
2024-01-10T12:45:33.155Z,62.38
2024-01-10T12:50:37.580Z,62.30
2024-01-10T12:55:47.468Z,62.77
2024-01-10T13:00:54.544Z,62.70
2024-01-10T13:06:02.209Z,63.87
2024-01-10T13:11:10.129Z,64.19
2024-01-10T13:16:14.716Z,64.65
2024-01-10T13:21:21.707Z,64.90
2024-01-10T13:26:26.524Z,65.49
2024-01-10T13:31:31.165Z,66.33
2024-01-10T13:36:34.010Z,66.07
2024-01-10T13:41:37.321Z,66.18
2024-01-10T13:46:40.336Z,66.37
2024-01-10T13:51:46.417Z,66.19
2024-01-10T13:56:49.379Z,65.59
2024-01-10T14:01:52.902Z,65.75
2024-01-10T14:06:55.711Z,65.52
2024-01-10T14:11:59.091Z,65.97
2024-01-10T14:17:02.276Z,65.35
2024-01-10T14:22:13.701Z,65.27
2024-01-10T14:27:20.593Z,64.70
2024-01-10T14:32:24.218Z,65.03
2024-01-10T14:37:33.268Z,65.17
2024-01-10T14:42:38.875Z,65.84
2024-01-10T14:47:42.192Z,65.95
2024-01-10T14:52:45.558Z,66.46
2024-01-10T14:57:49.206Z,69.24
2024-01-10T15:02:53.177Z,69.09
2024-01-10T15:07:56.144Z,69.07
2024-01-10T15:12:59.792Z,67.06
2024-01-10T15:18:02.676Z,65.73
2024-01-10T15:23:05.818Z,65.22
2024-01-10T15:28:11.225Z,63.79
2024-01-10T15:33:15.205Z,62.20
2024-01-10T15:38:18.186Z,61.37
2024-01-10T15:43:22.239Z,60.39
2024-01-10T15:48:25.500Z,60.06
2024-01-10T15:53:30.023Z,59.60
2024-01-10T15:58:34.360Z,59.25
2024-01-10T16:03:38.284Z,59.24
2024-01-10T16:08:41.700Z,59.48
2024-01-10T16:13:46.853Z,58.83
2024-01-10T16:18:50.557Z,58.97
2024-01-10T16:23:55.310Z,58.17
2024-01-10T16:28:58.018Z,58.10
2024-01-10T16:34:01.955Z,58.07
2024-01-10T16:39:04.798Z,58.19
2024-01-10T16:44:08.001Z,58.20
2024-01-10T16:49:11.580Z,57.99
2024-01-10T16:54:14.201Z,58.38
2024-01-10T16:59:17.173Z,58.17
2024-01-10T17:04:21.880Z,57.90
2024-01-10T17:09:24.854Z,57.98
2024-01-10T17:14:28.586Z,57.38
2024-01-10T17:19:31.453Z,57.91
2024-01-10T17:24:35.029Z,57.77
2024-01-10T17:29:38.113Z,57.50
2024-01-10T17:34:42.059Z,57.06
2024-01-10T17:39:50.479Z,57.08
2024-01-10T17:44:57.630Z,57.60
2024-01-10T17:50:00.502Z,57.20
2024-01-10T17:55:05.787Z,57.47
2024-01-10T18:00:10.991Z,56.91
2024-01-10T18:05:17.533Z,56.30
2024-01-10T18:10:20.553Z,57.09
2024-01-10T18:15:23.567Z,57.36
2024-01-10T18:20:26.341Z,56.55
2024-01-10T18:25:31.765Z,57.30
2024-01-10T18:30:35.539Z,57.32
2024-01-10T18:35:38.756Z,57.45
2024-01-10T18:40:42.418Z,56.99
2024-01-10T18:45:45.408Z,57.23
2024-01-10T18:50:48.213Z,56.78
2024-01-10T18:55:51.252Z,57.14
2024-01-10T19:00:54.065Z,56.72
2024-01-10T19:05:57.364Z,57.04
2024-01-10T19:11:01.790Z,56.50
2024-01-10T19:16:09.341Z,57.16
2024-01-10T19:21:12.214Z,57.30
2024-01-10T19:26:26.278Z,56.71
2024-01-10T19:31:29.084Z,56.88
2024-01-10T19:36:33.900Z,56.85
2024-01-10T19:41:36.894Z,57.33
2024-01-10T19:46:41.092Z,57.30
2024-01-10T19:51:46.809Z,56.53
2024-01-10T19:56:49.974Z,56.46
2024-01-10T20:01:52.765Z,56.88
2024-01-10T20:06:56.698Z,56.82
2024-01-10T20:11:59.488Z,57.20
2024-01-10T20:17:02.408Z,56.92
2024-01-10T20:22:05.476Z,56.65
2024-01-10T20:27:09.881Z,57.35
2024-01-10T20:32:12.745Z,56.67
2024-01-10T20:37:17.570Z,57.02
2024-01-10T20:42:21.071Z,57.14
2024-01-10T20:47:28.704Z,57.44
2024-01-10T20:52:31.609Z,56.65
2024-01-10T20:57:35.249Z,56.33
2024-01-10T21:02:38.875Z,56.84
2024-01-10T21:07:42.721Z,57.22
2024-01-10T21:12:45.529Z,56.68
2024-01-10T21:17:49.298Z,57.06
2024-01-10T21:22:53.588Z,57.44
2024-01-10T21:27:56.827Z,57.38
2024-01-10T21:33:02.016Z,56.98
2024-01-10T21:38:05.565Z,57.84
2024-01-10T21:43:08.303Z,58.12
2024-01-10T21:48:12.472Z,57.12
2024-01-10T21:53:15.336Z,57.49
2024-01-10T21:58:19.305Z,57.46
2024-01-10T22:03:28.627Z,57.16
2024-01-10T22:08:39.715Z,57.04
2024-01-10T22:13:42.584Z,57.00
2024-01-10T22:18:46.081Z,56.94
2024-01-10T22:23:48.919Z,57.23
2024-01-10T22:28:52.186Z,58.06
2024-01-10T22:33:55.763Z,56.76
2024-01-10T22:38:58.880Z,56.81
2024-01-10T22:44:01.841Z,56.72
2024-01-10T22:49:05.315Z,56.62
2024-01-10T22:54:08.329Z,56.78
2024-01-10T22:59:11.648Z,57.11
2024-01-10T23:04:14.578Z,56.92
2024-01-10T23:09:18.398Z,55.89
2024-01-10T23:14:21.130Z,56.45
2024-01-10T23:19:24.090Z,57.48
2024-01-10T23:24:27.899Z,56.25
2024-01-10T23:29:31.587Z,56.86
2024-01-10T23:34:34.888Z,56.95
2024-01-10T23:39:37.960Z,57.02
2024-01-10T23:44:41.337Z,56.58
2024-01-10T23:49:45.852Z,56.39
2024-01-10T23:54:48.576Z,56.64
2024-01-10T23:59:51.452Z,56.05
